DLH9KX EDDF-EDDH
Flight info
| Callsign | DLH9KX |
|---|---|
| Flight time | 1h 0m |
| Altitude | 35000 |
| Route | MARUN6E/07C MARUN Y150 TOLGI DCT SAS/N0445F340 P605 NOLGO NOLGO6A |
| Aircraft | A20N/M-SDE2E3FGHIRWXY/LB1 |
Departure
| Time | 2026-05-07 19:18 |
|---|---|
| Airport | Frankfurt Main Airport (EDDF) |
Arrival
| Time | 2026-05-07 20:18 |
|---|---|
| Airport | Hamburg Helmut Schmidt Airport (EDDH) |
| Time | Latitude | Longitude | Altitude | Speed | Heading |
|---|---|---|---|---|---|
| 2026-05-07 18:45 | 50.04550 | 8.56723 | 368 ft | 0 kts | 295° |
| 2026-05-07 19:01 | 50.04545 | 8.56738 | 368 ft | 2 kts | 295° |
| 2026-05-07 19:01 | 50.04539 | 8.56759 | 369 ft | 2 kts | 295° |
| 2026-05-07 19:02 | 50.04533 | 8.56780 | 369 ft | 2 kts | 295° |
| 2026-05-07 19:02 | 50.04527 | 8.56801 | 369 ft | 2 kts | 295° |
| 2026-05-07 19:02 | 50.04520 | 8.56822 | 369 ft | 2 kts | 295° |
| 2026-05-07 19:02 | 50.04516 | 8.56836 | 370 ft | 2 kts | 294° |
| 2026-05-07 19:03 | 50.04515 | 8.56858 | 369 ft | 2 kts | 251° |
| 2026-05-07 19:03 | 50.04523 | 8.56878 | 370 ft | 2 kts | 215° |
| 2026-05-07 19:03 | 50.04531 | 8.56884 | 370 ft | 1 kts | 195° |
| 2026-05-07 19:03 | 50.04538 | 8.56886 | 370 ft | 0 kts | 193° |
| 2026-05-07 19:06 | 50.04531 | 8.56884 | 370 ft | 2 kts | 193° |
| 2026-05-07 19:07 | 50.04503 | 8.56873 | 369 ft | 4 kts | 194° |
| 2026-05-07 19:07 | 50.04461 | 8.56858 | 368 ft | 7 kts | 191° |
| 2026-05-07 19:07 | 50.04397 | 8.56842 | 367 ft | 10 kts | 189° |
| 2026-05-07 19:07 | 50.04319 | 8.56820 | 365 ft | 11 kts | 192° |
| 2026-05-07 19:08 | 50.04257 | 8.56787 | 362 ft | 10 kts | 223° |
| 2026-05-07 19:08 | 50.04220 | 8.56667 | 358 ft | 14 kts | 250° |
| 2026-05-07 19:08 | 50.04183 | 8.56512 | 357 ft | 16 kts | 250° |
| 2026-05-07 19:08 | 50.04149 | 8.56352 | 355 ft | 6 kts | 256° |
| 2026-05-07 19:09 | 50.04125 | 8.56269 | 354 ft | 9 kts | 249° |
| 2026-05-07 19:09 | 50.04097 | 8.56152 | 353 ft | 12 kts | 250° |
| 2026-05-07 19:09 | 50.04066 | 8.56020 | 351 ft | 14 kts | 250° |
| 2026-05-07 19:09 | 50.04030 | 8.55869 | 348 ft | 16 kts | 250° |
| 2026-05-07 19:10 | 50.03990 | 8.55703 | 348 ft | 14 kts | 250° |
| 2026-05-07 19:10 | 50.03958 | 8.55569 | 348 ft | 14 kts | 250° |
| 2026-05-07 19:10 | 50.03923 | 8.55424 | 348 ft | 14 kts | 250° |
| 2026-05-07 19:10 | 50.03886 | 8.55268 | 347 ft | 15 kts | 250° |
| 2026-05-07 19:11 | 50.03846 | 8.55100 | 345 ft | 17 kts | 250° |
| 2026-05-07 19:11 | 50.03801 | 8.54910 | 342 ft | 19 kts | 250° |
| 2026-05-07 19:11 | 50.03752 | 8.54709 | 339 ft | 21 kts | 250° |
| 2026-05-07 19:11 | 50.03702 | 8.54499 | 337 ft | 16 kts | 250° |
| 2026-05-07 19:12 | 50.03670 | 8.54361 | 336 ft | 12 kts | 250° |
| 2026-05-07 19:12 | 50.03637 | 8.54305 | 336 ft | 0 kts | 195° |
| 2026-05-07 19:12 | 50.03628 | 8.54303 | 336 ft | 0 kts | 179° |
| 2026-05-07 19:12 | 50.03614 | 8.54308 | 336 ft | 3 kts | 165° |
| 2026-05-07 19:13 | 50.03584 | 8.54323 | 335 ft | 3 kts | 160° |
| 2026-05-07 19:13 | 50.03579 | 8.54326 | 335 ft | 0 kts | 159° |
| 2026-05-07 19:14 | 50.03567 | 8.54333 | 334 ft | 4 kts | 159° |
| 2026-05-07 19:14 | 50.03521 | 8.54361 | 333 ft | 9 kts | 159° |
| 2026-05-07 19:15 | 50.03487 | 8.54401 | 333 ft | 5 kts | 89° |
| 2026-05-07 19:15 | 50.03491 | 8.54422 | 333 ft | 0 kts | 71° |
| 2026-05-07 19:17 | 50.03492 | 8.54424 | 333 ft | 0 kts | 71° |
| 2026-05-07 19:17 | 50.03554 | 8.54687 | 336 ft | 63 kts | 70° |
| 2026-05-07 19:17 | 50.03796 | 8.55700 | 342 ft | 133 kts | 70° |
| 2026-05-07 19:17 | 50.04171 | 8.57265 | 607 ft | 166 kts | 70° |
| 2026-05-07 19:18 | 50.04572 | 8.58952 | 1305 ft | 169 kts | 69° |
| 2026-05-07 19:18 | 50.04977 | 8.60627 | 2120 ft | 169 kts | 69° |
| 2026-05-07 19:18 | 50.05444 | 8.62342 | 2633 ft | 182 kts | 53° |
| 2026-05-07 19:18 | 50.06500 | 8.63524 | 3035 ft | 200 kts | 18° |
| 2026-05-07 19:19 | 50.07945 | 8.63666 | 3477 ft | 218 kts | 356° |
| 2026-05-07 19:19 | 50.09485 | 8.63507 | 4164 ft | 227 kts | 356° |
| 2026-05-07 19:19 | 50.11068 | 8.63341 | 4743 ft | 238 kts | 356° |
| 2026-05-07 19:19 | 50.12783 | 8.63192 | 5007 ft | 257 kts | 357° |
| 2026-05-07 19:20 | 50.14598 | 8.63043 | 4993 ft | 260 kts | 357° |
| 2026-05-07 19:20 | 50.16388 | 8.62899 | 4999 ft | 259 kts | 358° |
| 2026-05-07 19:20 | 50.18208 | 8.62778 | 5076 ft | 265 kts | 357° |
| 2026-05-07 19:20 | 50.20056 | 8.62659 | 5853 ft | 269 kts | 358° |
| 2026-05-07 19:21 | 50.21881 | 8.62564 | 6898 ft | 267 kts | 358° |
| 2026-05-07 19:21 | 50.23745 | 8.62457 | 7780 ft | 271 kts | 358° |
| 2026-05-07 19:21 | 50.25634 | 8.62352 | 8589 ft | 276 kts | 357° |
| 2026-05-07 19:21 | 50.27552 | 8.62229 | 9401 ft | 280 kts | 356° |
| 2026-05-07 19:22 | 50.29498 | 8.62094 | 10164 ft | 286 kts | 356° |
| 2026-05-07 19:22 | 50.31530 | 8.61953 | 10734 ft | 298 kts | 356° |
| 2026-05-07 19:22 | 50.33643 | 8.61862 | 11129 ft | 316 kts | 358° |
| 2026-05-07 19:22 | 50.35890 | 8.61849 | 11507 ft | 333 kts | 359° |
| 2026-05-07 19:23 | 50.38241 | 8.61855 | 12127 ft | 341 kts | 359° |
| 2026-05-07 19:23 | 50.40615 | 8.61864 | 12877 ft | 344 kts | 359° |
| 2026-05-07 19:23 | 50.43005 | 8.61870 | 13608 ft | 348 kts | 359° |
| 2026-05-07 19:23 | 50.45419 | 8.62004 | 14310 ft | 353 kts | 3° |
| 2026-05-07 19:24 | 50.47893 | 8.62315 | 15006 ft | 357 kts | 4° |
| 2026-05-07 19:24 | 50.50355 | 8.62661 | 15675 ft | 360 kts | 4° |
| 2026-05-07 19:24 | 50.52847 | 8.63018 | 16332 ft | 364 kts | 4° |
| 2026-05-07 19:24 | 50.55383 | 8.63380 | 16988 ft | 368 kts | 4° |
| 2026-05-07 19:25 | 50.57930 | 8.63743 | 17621 ft | 371 kts | 4° |
| 2026-05-07 19:25 | 50.60477 | 8.64104 | 18233 ft | 374 kts | 4° |
| 2026-05-07 19:25 | 50.63087 | 8.64474 | 18855 ft | 377 kts | 4° |
| 2026-05-07 19:25 | 50.65692 | 8.64917 | 19447 ft | 381 kts | 9° |
| 2026-05-07 19:26 | 50.68156 | 8.66447 | 19961 ft | 389 kts | 30° |
| 2026-05-07 19:26 | 50.70398 | 8.68905 | 20576 ft | 392 kts | 36° |
| 2026-05-07 19:26 | 50.72577 | 8.71491 | 21132 ft | 396 kts | 36° |
| 2026-05-07 19:26 | 50.74785 | 8.74072 | 21688 ft | 399 kts | 35° |
| 2026-05-07 19:27 | 50.77041 | 8.76641 | 22235 ft | 403 kts | 34° |
| 2026-05-07 19:27 | 50.79309 | 8.79173 | 22777 ft | 406 kts | 34° |
| 2026-05-07 19:27 | 50.81645 | 8.81749 | 23327 ft | 409 kts | 33° |
| 2026-05-07 19:27 | 50.83963 | 8.84290 | 23851 ft | 412 kts | 33° |
| 2026-05-07 19:28 | 50.86315 | 8.86860 | 24356 ft | 415 kts | 33° |
| 2026-05-07 19:28 | 50.88702 | 8.89465 | 24868 ft | 417 kts | 33° |
| 2026-05-07 19:28 | 50.91094 | 8.92077 | 25369 ft | 420 kts | 33° |
| 2026-05-07 19:28 | 50.93499 | 8.94703 | 25845 ft | 423 kts | 33° |
| 2026-05-07 19:29 | 50.95907 | 8.97335 | 26315 ft | 425 kts | 33° |
| 2026-05-07 19:29 | 50.98329 | 8.99985 | 26772 ft | 427 kts | 33° |
| 2026-05-07 19:29 | 51.00796 | 9.02689 | 27212 ft | 430 kts | 33° |
| 2026-05-07 19:29 | 51.03247 | 9.05380 | 27636 ft | 432 kts | 33° |
| 2026-05-07 19:30 | 51.05722 | 9.08100 | 28008 ft | 435 kts | 33° |
| 2026-05-07 19:30 | 51.08190 | 9.10817 | 28066 ft | 435 kts | 33° |
| 2026-05-07 19:30 | 51.13164 | 9.16324 | 28102 ft | 436 kts | 33° |
| 2026-05-07 19:31 | 51.15657 | 9.19095 | 28427 ft | 439 kts | 33° |
| 2026-05-07 19:31 | 51.18173 | 9.21891 | 28900 ft | 439 kts | 33° |
| 2026-05-07 19:31 | 51.20665 | 9.24660 | 29325 ft | 439 kts | 33° |
| 2026-05-07 19:31 | 51.23146 | 9.27417 | 29807 ft | 437 kts | 33° |
| 2026-05-07 19:32 | 51.25693 | 9.30074 | 30281 ft | 435 kts | 30° |
| 2026-05-07 19:32 | 51.28324 | 9.32383 | 30701 ft | 433 kts | 25° |
| 2026-05-07 19:32 | 51.31067 | 9.34330 | 31081 ft | 432 kts | 20° |
| 2026-05-07 19:32 | 51.33900 | 9.35893 | 31398 ft | 432 kts | 15° |
| 2026-05-07 19:33 | 51.36806 | 9.37088 | 31705 ft | 431 kts | 12° |
| 2026-05-07 19:33 | 51.39700 | 9.38114 | 32005 ft | 431 kts | 11° |
| 2026-05-07 19:33 | 51.42647 | 9.39123 | 32310 ft | 430 kts | 11° |
| 2026-05-07 19:33 | 51.45548 | 9.40118 | 32592 ft | 427 kts | 11° |
| 2026-05-07 19:34 | 51.51337 | 9.42127 | 31975 ft | 423 kts | 11° |
| 2026-05-07 19:34 | 51.54208 | 9.43130 | 31178 ft | 429 kts | 11° |
| 2026-05-07 19:34 | 51.57120 | 9.44150 | 30456 ft | 430 kts | 11° |
| 2026-05-07 19:35 | 51.60063 | 9.45186 | 30097 ft | 433 kts | 11° |
| 2026-05-07 19:35 | 51.63016 | 9.46227 | 30055 ft | 434 kts | 11° |
| 2026-05-07 19:35 | 51.68899 | 9.48306 | 30055 ft | 435 kts | 11° |
| 2026-05-07 19:36 | 51.74826 | 9.50401 | 30058 ft | 435 kts | 11° |
| 2026-05-07 19:36 | 51.80669 | 9.52773 | 30060 ft | 435 kts | 16° |
| 2026-05-07 19:37 | 51.86306 | 9.56172 | 30063 ft | 435 kts | 22° |
| 2026-05-07 19:37 | 51.91728 | 9.60476 | 30066 ft | 435 kts | 26° |
| 2026-05-07 19:38 | 51.97050 | 9.64919 | 29739 ft | 428 kts | 26° |
| 2026-05-07 19:38 | 51.99741 | 9.67048 | 28887 ft | 431 kts | 20° |
| 2026-05-07 19:38 | 52.02610 | 9.68184 | 28029 ft | 431 kts | 9° |
| 2026-05-07 19:39 | 52.05547 | 9.69038 | 27487 ft | 426 kts | 9° |
| 2026-05-07 19:39 | 52.08441 | 9.69903 | 26919 ft | 422 kts | 10° |
| 2026-05-07 19:39 | 52.11318 | 9.70790 | 26326 ft | 419 kts | 10° |
| 2026-05-07 19:39 | 52.14123 | 9.71676 | 25750 ft | 416 kts | 10° |
| 2026-05-07 19:40 | 52.16940 | 9.72578 | 25236 ft | 412 kts | 10° |
| 2026-05-07 19:40 | 52.19756 | 9.73488 | 25078 ft | 411 kts | 10° |
| 2026-05-07 19:40 | 52.22570 | 9.74402 | 25076 ft | 413 kts | 10° |
| 2026-05-07 19:40 | 52.25373 | 9.75316 | 25077 ft | 413 kts | 10° |
| 2026-05-07 19:41 | 52.28183 | 9.76237 | 25080 ft | 413 kts | 10° |
| 2026-05-07 19:41 | 52.30987 | 9.77158 | 25083 ft | 413 kts | 10° |
| 2026-05-07 19:41 | 52.33799 | 9.78083 | 25084 ft | 413 kts | 10° |
| 2026-05-07 19:41 | 52.36599 | 9.79007 | 25085 ft | 414 kts | 10° |
| 2026-05-07 19:42 | 52.39431 | 9.79943 | 25019 ft | 410 kts | 10° |
| 2026-05-07 19:42 | 52.42178 | 9.80852 | 24563 ft | 406 kts | 10° |
| 2026-05-07 19:42 | 52.44942 | 9.81767 | 23909 ft | 406 kts | 10° |
| 2026-05-07 19:42 | 52.47721 | 9.82688 | 23319 ft | 403 kts | 10° |
| 2026-05-07 19:43 | 52.50433 | 9.83588 | 22792 ft | 400 kts | 10° |
| 2026-05-07 19:43 | 52.53159 | 9.84492 | 22265 ft | 396 kts | 10° |
| 2026-05-07 19:43 | 52.55839 | 9.85383 | 21741 ft | 393 kts | 11° |
| 2026-05-07 19:43 | 52.58499 | 9.86269 | 21212 ft | 390 kts | 11° |
| 2026-05-07 19:44 | 52.61156 | 9.87156 | 20683 ft | 387 kts | 11° |
| 2026-05-07 19:44 | 52.63773 | 9.88029 | 20166 ft | 384 kts | 11° |
| 2026-05-07 19:44 | 52.66356 | 9.88893 | 19656 ft | 381 kts | 11° |
| 2026-05-07 19:44 | 52.68947 | 9.89760 | 19147 ft | 378 kts | 11° |
| 2026-05-07 19:45 | 52.71526 | 9.90624 | 18636 ft | 375 kts | 11° |
| 2026-05-07 19:45 | 52.74050 | 9.91470 | 18140 ft | 373 kts | 11° |
| 2026-05-07 19:45 | 52.76588 | 9.92323 | 17646 ft | 370 kts | 11° |
| 2026-05-07 19:45 | 52.79108 | 9.93174 | 17149 ft | 367 kts | 11° |
| 2026-05-07 19:46 | 52.81599 | 9.94015 | 16655 ft | 364 kts | 11° |
| 2026-05-07 19:46 | 52.84062 | 9.94847 | 16164 ft | 362 kts | 11° |
| 2026-05-07 19:46 | 52.86499 | 9.95670 | 15674 ft | 359 kts | 11° |
| 2026-05-07 19:46 | 52.87008 | 9.95842 | 15576 ft | 359 kts | 11° |
| 2026-05-07 19:47 | 52.87664 | 9.96064 | 15452 ft | 358 kts | 11° |
| 2026-05-07 19:47 | 52.89645 | 9.96734 | 15057 ft | 355 kts | 11° |
| 2026-05-07 19:48 | 52.91744 | 9.97441 | 14649 ft | 353 kts | 11° |
| 2026-05-07 19:48 | 52.93657 | 9.98087 | 14278 ft | 350 kts | 11° |
| 2026-05-07 19:48 | 52.95130 | 9.98586 | 13993 ft | 348 kts | 11° |
| 2026-05-07 19:48 | 52.97498 | 9.99389 | 13544 ft | 345 kts | 11° |
| 2026-05-07 19:49 | 52.99847 | 10.00187 | 13077 ft | 343 kts | 11° |
| 2026-05-07 19:49 | 53.02153 | 10.00970 | 12619 ft | 340 kts | 12° |
| 2026-05-07 19:49 | 53.04470 | 10.01756 | 12156 ft | 338 kts | 12° |
| 2026-05-07 19:49 | 53.06774 | 10.02538 | 11697 ft | 335 kts | 12° |
| 2026-05-07 19:50 | 53.09033 | 10.03307 | 11228 ft | 333 kts | 12° |
| 2026-05-07 19:50 | 53.11293 | 10.04080 | 10825 ft | 329 kts | 13° |
| 2026-05-07 19:50 | 53.13396 | 10.05352 | 10609 ft | 317 kts | 32° |
| 2026-05-07 19:50 | 53.14953 | 10.07767 | 10409 ft | 306 kts | 55° |
| 2026-05-07 19:51 | 53.16008 | 10.10786 | 10243 ft | 296 kts | 62° |
| 2026-05-07 19:51 | 53.16879 | 10.13700 | 10111 ft | 284 kts | 64° |
| 2026-05-07 19:51 | 53.17733 | 10.16645 | 10102 ft | 282 kts | 64° |
| 2026-05-07 19:51 | 53.18573 | 10.19569 | 10120 ft | 282 kts | 64° |
| 2026-05-07 19:52 | 53.19418 | 10.22516 | 10105 ft | 282 kts | 64° |
| 2026-05-07 19:52 | 53.20266 | 10.25468 | 10102 ft | 281 kts | 64° |
| 2026-05-07 19:52 | 53.21107 | 10.28391 | 10101 ft | 281 kts | 64° |
| 2026-05-07 19:52 | 53.21950 | 10.31324 | 10096 ft | 281 kts | 64° |
| 2026-05-07 19:53 | 53.22792 | 10.34256 | 10099 ft | 281 kts | 64° |
| 2026-05-07 19:53 | 53.23636 | 10.37198 | 10056 ft | 277 kts | 64° |
| 2026-05-07 19:53 | 53.24459 | 10.40065 | 9702 ft | 277 kts | 64° |
| 2026-05-07 19:53 | 53.25291 | 10.42967 | 9300 ft | 276 kts | 64° |
| 2026-05-07 19:54 | 53.26112 | 10.45828 | 9114 ft | 273 kts | 64° |
| 2026-05-07 19:54 | 53.26926 | 10.48664 | 9111 ft | 275 kts | 64° |
| 2026-05-07 19:54 | 53.27757 | 10.51557 | 9108 ft | 275 kts | 64° |
| 2026-05-07 19:54 | 53.28595 | 10.54436 | 9107 ft | 275 kts | 60° |
| 2026-05-07 19:55 | 53.29803 | 10.56825 | 9099 ft | 275 kts | 35° |
| 2026-05-07 19:55 | 53.31560 | 10.58061 | 9110 ft | 277 kts | 11° |
| 2026-05-07 19:55 | 53.33472 | 10.58448 | 9113 ft | 277 kts | 5° |
| 2026-05-07 19:55 | 53.35364 | 10.58655 | 8946 ft | 273 kts | 4° |
| 2026-05-07 19:56 | 53.37261 | 10.58823 | 8528 ft | 274 kts | 4° |
| 2026-05-07 19:56 | 53.39167 | 10.58976 | 8144 ft | 273 kts | 4° |
| 2026-05-07 19:56 | 53.41033 | 10.59116 | 7789 ft | 271 kts | 4° |
| 2026-05-07 19:56 | 53.42918 | 10.59066 | 7405 ft | 271 kts | 349° |
| 2026-05-07 19:57 | 53.44681 | 10.57985 | 7135 ft | 270 kts | 336° |
| 2026-05-07 19:57 | 53.46355 | 10.56577 | 7116 ft | 272 kts | 334° |
| 2026-05-07 19:57 | 53.48048 | 10.55087 | 7114 ft | 272 kts | 334° |
| 2026-05-07 19:57 | 53.49699 | 10.53622 | 7114 ft | 272 kts | 334° |
| 2026-05-07 19:58 | 53.51391 | 10.52117 | 7112 ft | 273 kts | 334° |
| 2026-05-07 19:58 | 53.53050 | 10.50639 | 7110 ft | 273 kts | 334° |
| 2026-05-07 19:58 | 53.54739 | 10.49130 | 7111 ft | 273 kts | 334° |
| 2026-05-07 19:58 | 53.56399 | 10.47646 | 7112 ft | 273 kts | 334° |
| 2026-05-07 19:59 | 53.58088 | 10.46137 | 7113 ft | 273 kts | 334° |
| 2026-05-07 19:59 | 53.59754 | 10.44646 | 7114 ft | 273 kts | 334° |
| 2026-05-07 19:59 | 53.61428 | 10.43149 | 7113 ft | 273 kts | 334° |
| 2026-05-07 19:59 | 53.63104 | 10.41648 | 7114 ft | 273 kts | 334° |
| 2026-05-07 20:00 | 53.64793 | 10.40136 | 7114 ft | 273 kts | 334° |
| 2026-05-07 20:00 | 53.66423 | 10.38675 | 7108 ft | 259 kts | 334° |
| 2026-05-07 20:00 | 53.67963 | 10.37288 | 7105 ft | 243 kts | 334° |
| 2026-05-07 20:00 | 53.69421 | 10.35969 | 7110 ft | 240 kts | 334° |
| 2026-05-07 20:01 | 53.70893 | 10.34629 | 7114 ft | 240 kts | 331° |
| 2026-05-07 20:01 | 53.72124 | 10.32755 | 7102 ft | 245 kts | 302° |
| 2026-05-07 20:01 | 53.72640 | 10.30012 | 7110 ft | 248 kts | 271° |
| 2026-05-07 20:01 | 53.72269 | 10.27205 | 7114 ft | 249 kts | 240° |
| 2026-05-07 20:02 | 53.71305 | 10.24797 | 7120 ft | 249 kts | 231° |
| 2026-05-07 20:02 | 53.70208 | 10.22505 | 7110 ft | 249 kts | 229° |
| 2026-05-07 20:02 | 53.69094 | 10.20257 | 7097 ft | 249 kts | 229° |
| 2026-05-07 20:02 | 53.67994 | 10.18052 | 7124 ft | 249 kts | 229° |
| 2026-05-07 20:03 | 53.66864 | 10.15801 | 7091 ft | 249 kts | 229° |
| 2026-05-07 20:03 | 53.65756 | 10.13602 | 7101 ft | 249 kts | 229° |
| 2026-05-07 20:03 | 53.64627 | 10.11367 | 7095 ft | 249 kts | 229° |
| 2026-05-07 20:03 | 53.63497 | 10.09137 | 7097 ft | 249 kts | 229° |
| 2026-05-07 20:04 | 53.62341 | 10.06971 | 7103 ft | 248 kts | 219° |
| 2026-05-07 20:04 | 53.60932 | 10.05393 | 6905 ft | 244 kts | 207° |
| 2026-05-07 20:04 | 53.59428 | 10.04089 | 6542 ft | 245 kts | 204° |
| 2026-05-07 20:04 | 53.57915 | 10.02841 | 6222 ft | 245 kts | 204° |
| 2026-05-07 20:05 | 53.56371 | 10.01575 | 5906 ft | 244 kts | 204° |
| 2026-05-07 20:05 | 53.54871 | 10.00339 | 5598 ft | 243 kts | 204° |
| 2026-05-07 20:05 | 53.53358 | 9.99082 | 5297 ft | 242 kts | 204° |
| 2026-05-07 20:05 | 53.51855 | 9.97827 | 5036 ft | 239 kts | 204° |
| 2026-05-07 20:06 | 53.50364 | 9.96577 | 4994 ft | 241 kts | 206° |
| 2026-05-07 20:06 | 53.49026 | 9.94899 | 4989 ft | 244 kts | 224° |
| 2026-05-07 20:06 | 53.47883 | 9.92799 | 4990 ft | 244 kts | 229° |
| 2026-05-07 20:06 | 53.46775 | 9.90606 | 4990 ft | 245 kts | 229° |
| 2026-05-07 20:07 | 53.45690 | 9.88430 | 4988 ft | 244 kts | 229° |
| 2026-05-07 20:07 | 53.44608 | 9.86258 | 4989 ft | 244 kts | 229° |
| 2026-05-07 20:07 | 53.43515 | 9.84064 | 4991 ft | 244 kts | 229° |
| 2026-05-07 20:07 | 53.42440 | 9.81907 | 4986 ft | 244 kts | 229° |
| 2026-05-07 20:08 | 53.41351 | 9.79718 | 5012 ft | 244 kts | 229° |
| 2026-05-07 20:08 | 53.40264 | 9.77525 | 5005 ft | 242 kts | 229° |
| 2026-05-07 20:08 | 53.39216 | 9.75399 | 4861 ft | 235 kts | 229° |
| 2026-05-07 20:08 | 53.38193 | 9.73318 | 4720 ft | 227 kts | 229° |
| 2026-05-07 20:09 | 53.37215 | 9.71321 | 4489 ft | 220 kts | 229° |
| 2026-05-07 20:09 | 53.36247 | 9.69337 | 4113 ft | 220 kts | 230° |
| 2026-05-07 20:09 | 53.35492 | 9.67138 | 3772 ft | 223 kts | 258° |
| 2026-05-07 20:10 | 53.36417 | 9.62607 | 3161 ft | 212 kts | 330° |
| 2026-05-07 20:10 | 53.37728 | 9.61701 | 2995 ft | 205 kts | 351° |
| 2026-05-07 20:10 | 53.39139 | 9.61198 | 2989 ft | 205 kts | 357° |
| 2026-05-07 20:10 | 53.40521 | 9.61365 | 2982 ft | 199 kts | 19° |
| 2026-05-07 20:11 | 53.41833 | 9.62055 | 2983 ft | 199 kts | 23° |
| 2026-05-07 20:11 | 53.43137 | 9.62843 | 2981 ft | 199 kts | 24° |
| 2026-05-07 20:11 | 53.44433 | 9.63647 | 2981 ft | 198 kts | 27° |
| 2026-05-07 20:11 | 53.45626 | 9.64702 | 2969 ft | 191 kts | 38° |
| 2026-05-07 20:12 | 53.46589 | 9.66017 | 3031 ft | 168 kts | 47° |
| 2026-05-07 20:12 | 53.47398 | 9.67389 | 3001 ft | 163 kts | 49° |
| 2026-05-07 20:12 | 53.48166 | 9.68757 | 2987 ft | 162 kts | 51° |
| 2026-05-07 20:12 | 53.48924 | 9.70180 | 2986 ft | 162 kts | 52° |
| 2026-05-07 20:13 | 53.49657 | 9.71611 | 2991 ft | 162 kts | 53° |
| 2026-05-07 20:13 | 53.50384 | 9.73065 | 2995 ft | 162 kts | 53° |
| 2026-05-07 20:13 | 53.51101 | 9.74518 | 2998 ft | 162 kts | 53° |
| 2026-05-07 20:13 | 53.51819 | 9.75985 | 2997 ft | 162 kts | 53° |
| 2026-05-07 20:14 | 53.52536 | 9.77453 | 2929 ft | 163 kts | 53° |
| 2026-05-07 20:14 | 53.53253 | 9.78923 | 2723 ft | 162 kts | 53° |
| 2026-05-07 20:14 | 53.53962 | 9.80375 | 2506 ft | 161 kts | 53° |
| 2026-05-07 20:14 | 53.54675 | 9.81829 | 2289 ft | 160 kts | 53° |
| 2026-05-07 20:15 | 53.55374 | 9.83256 | 2076 ft | 159 kts | 54° |
| 2026-05-07 20:15 | 53.56079 | 9.84693 | 1863 ft | 158 kts | 53° |
| 2026-05-07 20:15 | 53.56769 | 9.86095 | 1647 ft | 153 kts | 53° |
| 2026-05-07 20:15 | 53.57421 | 9.87419 | 1457 ft | 140 kts | 53° |
| 2026-05-07 20:16 | 53.58020 | 9.88641 | 1262 ft | 134 kts | 53° |
| 2026-05-07 20:16 | 53.58614 | 9.89847 | 1087 ft | 133 kts | 53° |
| 2026-05-07 20:16 | 53.59202 | 9.91044 | 914 ft | 132 kts | 52° |
| 2026-05-07 20:16 | 53.59785 | 9.92230 | 740 ft | 132 kts | 52° |
| 2026-05-07 20:17 | 53.60374 | 9.93430 | 554 ft | 132 kts | 52° |
| 2026-05-07 20:17 | 53.60954 | 9.94610 | 377 ft | 131 kts | 51° |
| 2026-05-07 20:17 | 53.61531 | 9.95779 | 197 ft | 130 kts | 51° |
| 2026-05-07 20:17 | 53.62103 | 9.96937 | 40 ft | 127 kts | 51° |
| 2026-05-07 20:18 | 53.62608 | 9.97959 | 31 ft | 91 kts | 50° |
| 2026-05-07 20:18 | 53.62917 | 9.98581 | 38 ft | 56 kts | 50° |
| 2026-05-07 20:18 | 53.63079 | 9.98952 | 36 ft | 23 kts | 72° |
| 2026-05-07 20:18 | 53.63088 | 9.99175 | 34 ft | 13 kts | 95° |
| 2026-05-07 20:19 | 53.63082 | 9.99322 | 31 ft | 12 kts | 83° |
| 2026-05-07 20:19 | 53.63111 | 9.99433 | 31 ft | 10 kts | 56° |
| 2026-05-07 20:19 | 53.63157 | 9.99542 | 31 ft | 11 kts | 51° |
| 2026-05-07 20:19 | 53.63202 | 9.99635 | 31 ft | 6 kts | 50° |
| 2026-05-07 20:20 | 53.63208 | 9.99647 | 31 ft | 1 kts | 49° |
| 2026-05-07 20:20 | 53.63217 | 9.99664 | 31 ft | 2 kts | 47° |
| 2026-05-07 20:20 | 53.63237 | 9.99697 | 31 ft | 5 kts | 44° |
| 2026-05-07 20:20 | 53.63272 | 9.99754 | 30 ft | 7 kts | 44° |
| 2026-05-07 20:21 | 53.63309 | 9.99824 | 31 ft | 8 kts | 50° |
| 2026-05-07 20:21 | 53.63345 | 9.99897 | 32 ft | 8 kts | 50° |
| 2026-05-07 20:21 | 53.63379 | 9.99967 | 33 ft | 7 kts | 50° |
| 2026-05-07 20:21 | 53.63409 | 10.00027 | 35 ft | 4 kts | 50° |
| 2026-05-07 20:22 | 53.63421 | 10.00051 | 37 ft | 1 kts | 53° |
| 2026-05-07 20:22 | 53.63427 | 10.00074 | 38 ft | 2 kts | 69° |
| 2026-05-07 20:22 | 53.63437 | 10.00125 | 39 ft | 5 kts | 74° |
| 2026-05-07 20:22 | 53.63436 | 10.00178 | 40 ft | 4 kts | 102° |
| 2026-05-07 20:23 | 53.63424 | 10.00213 | 41 ft | 3 kts | 135° |
| 2026-05-07 20:23 | 53.63410 | 10.00251 | 41 ft | 3 kts | 103° |
| 2026-05-07 20:23 | 53.63411 | 10.00288 | 42 ft | 2 kts | 85° |
| 2026-05-07 20:23 | 53.63412 | 10.00315 | 42 ft | 2 kts | 85° |
| 2026-05-07 20:24 | 53.63413 | 10.00334 | 43 ft | 0 kts | 85° |
| 2026-05-07 20:24 | 53.63413 | 10.00337 | 43 ft | 0 kts | 85° |
| 2026-05-07 20:24 | 53.63413 | 10.00338 | 43 ft | 0 kts | 85° |